Time;durP1;ratioP1;P1;durP2;ratioP2;P2;SDS_P1;SDS_P2;PMS_P1;PMS_P2;Temp;Humidity;BMP_temperature;BMP_pressure;BME280_temperature;BME280_humidity;BME280_pressure;Samples;Min_cycle;Max_cycle;Signal;HPM_P1;HPM_P2
2022/08/09 00:02:48;;;;;;;4.35;1.45;;;;;;;19.63;45.03;100893.94;20886683;28;20549;-66
2022/08/09 00:12:51;;;;;;;3.28;1.38;;;;;;;19.62;45.25;100897.53;20887086;28;20041;-67
2022/08/09 00:22:54;;;;;;;5.75;1.55;;;;;;;19.62;45.39;100892.22;20886927;28;20465;-67
2022/08/09 00:32:56;;;;;;;4.45;1.20;;;;;;;19.54;45.60;100889.00;20885510;28;20566;-66
2022/08/09 00:42:58;;;;;;;8.43;1.50;;;;;;;19.57;45.25;100886.22;20886241;28;20037;-69
2022/08/09 00:53:19;;;;;;;4.85;1.27;;;;;;;19.53;45.83;100881.97;20891752;28;20044;-67
2022/08/09 01:03:24;;;;;;;2.30;1.17;;;;;;;19.39;46.53;100897.66;20899216;28;20049;-68
2022/08/09 01:13:28;;;;;;;3.07;1.37;;;;;;;19.23;47.06;100901.00;20899127;28;20144;-67
2022/08/09 01:23:50;;;;;;;4.32;1.30;;;;;;;19.09;47.57;100902.53;20898490;28;20041;-67
2022/08/09 01:34:04;;;;;;;3.70;1.30;;;;;;;18.96;48.15;100899.53;20897333;28;20041;-67
2022/08/09 01:44:09;;;;;;;3.65;1.45;;;;;;;18.87;48.55;100905.22;20896324;28;20052;-67
2022/08/09 01:54:10;;;;;;;3.45;1.50;;;;;;;18.74;48.89;100904.03;20895717;28;20464;-67
2022/08/09 02:04:12;;;;;;;3.70;1.58;;;;;;;18.68;49.12;100918.34;20894518;28;20057;-66
2022/08/09 02:14:14;;;;;;;3.75;1.35;;;;;;;18.66;49.41;100925.53;20894182;28;20049;-68
2022/08/09 02:24:26;;;;;;;5.25;1.45;;;;;;;18.56;49.76;100929.47;20893602;28;20049;-64
2022/08/09 02:34:28;;;;;;;6.18;1.50;;;;;;;18.38;50.83;100920.47;20892821;28;20059;-64
2022/08/09 02:44:49;;;;;;;4.05;1.50;;;;;;;18.13;51.89;100928.50;20891382;28;20102;-64
2022/08/09 02:54:50;;;;;;;3.97;1.70;;;;;;;17.96;52.80;100937.09;20890780;28;20090;-64
2022/08/09 03:04:55;;;;;;;4.00;1.67;;;;;;;17.87;53.42;100942.72;20889815;28;20033;-65
2022/08/09 03:14:57;;;;;;;3.72;1.85;;;;;;;17.93;53.14;100931.94;20889942;28;20083;-64
2022/08/09 03:24:58;;;;;;;4.75;1.92;;;;;;;17.86;53.49;100933.06;20889060;28;20051;-65
2022/08/09 03:35:19;;;;;;;4.90;1.50;;;;;;;17.67;54.49;100936.34;20887501;28;20075;-65
2022/08/09 03:45:41;;;;;;;5.30;2.03;;;;;;;17.49;55.51;100939.69;20889871;28;20060;-66
2022/08/09 03:56:02;;;;;;;7.32;2.10;;;;;;;17.42;55.88;100952.25;20888823;28;20045;-65
2022/08/09 04:06:05;;;;;;;3.75;1.90;;;;;;;17.37;56.16;100956.84;20887140;28;20106;-65
2022/08/09 04:16:07;;;;;;;6.40;1.90;;;;;;;17.39;56.42;100970.03;20886590;28;20041;-65
2022/08/09 04:26:21;;;;;;;4.28;1.90;;;;;;;17.39;56.74;100983.25;20891052;28;20415;-65
2022/08/09 04:36:23;;;;;;;6.65;2.10;;;;;;;17.45;56.71;100988.38;20903185;28;20069;-66
2022/08/09 04:46:25;;;;;;;4.20;2.00;;;;;;;17.48;56.92;100990.03;20902022;28;20098;-65
2022/08/09 04:56:46;;;;;;;4.13;1.80;;;;;;;17.51;57.20;100996.09;20902119;28;20122;-65
2022/08/09 05:06:48;;;;;;;6.00;1.90;;;;;;;17.55;57.41;101010.97;20900190;28;20045;-65
2022/08/09 05:16:51;;;;;;;4.82;2.00;;;;;;;17.69;57.36;101023.72;20899249;28;20078;-69
2022/08/09 05:26:59;;;;;;;6.30;2.10;;;;;;;17.74;57.80;101028.88;20899187;28;20045;-68
2022/08/09 05:37:01;;;;;;;6.72;2.47;;;;;;;17.88;57.55;101042.50;20896863;28;20422;-68
2022/08/09 05:47:07;;;;;;;12.10;2.80;;;;;;;18.26;56.08;101037.59;20898075;28;20044;-68
2022/08/09 05:57:09;;;;;;;6.00;2.40;;;;;;;18.56;55.42;101041.72;20896438;28;20049;-68
2022/08/09 06:07:14;;;;;;;7.45;2.53;;;;;;;18.70;55.40;101051.84;20895606;28;20438;-68
2022/08/09 06:17:22;;;;;;;8.18;1.95;;;;;;;18.99;54.25;101063.09;20892637;28;20497;-68
2022/08/09 06:27:23;;;;;;;7.03;2.50;;;;;;;19.19;53.44;101068.44;20891230;28;20049;-68
2022/08/09 06:37:42;;;;;;;9.75;2.63;;;;;;;19.42;52.81;101073.69;20890240;28;20114;-67
2022/08/09 06:48:04;;;;;;;6.22;2.10;;;;;;;19.86;51.26;101068.28;20890114;28;20037;-67
2022/08/09 06:58:06;;;;;;;6.97;1.80;;;;;;;20.25;49.74;101078.94;20891994;28;20049;-67
2022/08/09 07:08:27;;;;;;;4.95;2.10;;;;;;;20.62;47.23;101079.97;20889671;28;20122;-67
2022/08/09 07:18:30;;;;;;;5.32;2.22;;;;;;;20.87;46.21;101086.78;20890637;28;20090;-67
2022/08/09 07:28:32;;;;;;;6.22;2.10;;;;;;;21.02;46.68;101083.38;20890064;28;20049;-67
2022/08/09 07:38:35;;;;;;;6.90;2.17;;;;;;;21.28;46.25;101092.78;20889921;28;20053;-67
2022/08/09 07:48:37;;;;;;;5.55;2.22;;;;;;;21.49;46.65;101090.88;20889376;28;20467;-68
2022/08/09 07:58:39;;;;;;;8.68;2.13;;;;;;;21.75;46.94;101090.44;20888417;28;20077;-68
2022/08/09 08:08:41;;;;;;;5.28;2.13;;;;;;;22.11;46.98;101089.47;20904532;28;20059;-70
2022/08/09 08:19:02;;;;;;;6.68;2.05;;;;;;;22.38;45.63;101102.31;20904625;28;20065;-69
2022/08/09 08:29:04;;;;;;;6.70;2.10;;;;;;;22.37;46.03;101106.75;20904455;28;20654;-70
2022/08/09 08:39:10;;;;;;;5.43;2.10;;;;;;;22.89;44.72;101101.28;20902652;28;20530;-70
2022/08/09 08:49:11;;;;;;;7.03;2.33;;;;;;;23.30;44.11;101098.94;20901524;28;20099;-70
2022/08/09 08:59:19;;;;;;;15.68;2.63;;;;;;;23.57;43.09;101100.94;20901147;28;20064;-70
2022/08/09 09:09:21;;;;;;;5.85;2.13;;;;;;;23.91;42.12;101099.84;20899177;28;20099;-71
2022/08/09 09:19:42;;;;;;;7.55;2.20;;;;;;;24.50;40.37;101084.63;20899530;28;20395;-70
2022/08/09 09:29:43;;;;;;;6.15;2.00;;;;;;;24.82;39.79;101084.38;20900276;28;20485;-70
2022/08/09 09:40:05;;;;;;;6.32;2.10;;;;;;;25.07;38.76;101086.34;20898285;28;20045;-70
2022/08/09 09:50:08;;;;;;;4.55;1.92;;;;;;;25.84;35.93;101066.88;20897281;28;20063;-70
2022/08/09 10:00:17;;;;;;;6.00;1.90;;;;;;;26.26;36.50;101056.78;20895856;28;20050;-70
2022/08/09 10:10:18;;;;;;;4.95;2.10;;;;;;;27.00;34.54;101048.75;20895944;28;20060;-70
2022/08/09 10:20:20;;;;;;;5.07;1.85;;;;;;;27.13;34.07;101028.09;20895021;28;20044;-71
2022/08/09 10:30:33;;;;;;;9.70;1.83;;;;;;;27.23;32.88;101026.44;20891582;28;20421;-67
2022/08/09 10:40:54;;;;;;;3.90;1.60;;;;;;;27.35;31.82;101022.78;20892652;28;20489;-68
2022/08/09 10:51:05;;;;;;;5.30;2.03;;;;;;;27.68;30.36;101002.34;20892301;28;20052;-68
2022/08/09 11:01:06;;;;;;;7.40;1.70;;;;;;;28.49;29.41;101005.84;20890482;28;20460;-68
2022/08/09 11:11:28;;;;;;;4.85;2.35;;;;;;;28.42;27.55;101002.81;20891738;28;20083;-68
2022/08/09 11:21:33;;;;;;;5.38;1.80;;;;;;;28.46;27.25;100987.22;20890451;28;20091;-68
2022/08/09 11:31:43;;;;;;;4.35;1.63;;;;;;;28.80;26.87;100990.72;20889485;28;20056;-69
2022/08/09 11:41:50;;;;;;;6.57;1.80;;;;;;;28.66;27.56;100985.63;20889539;28;20064;-68
2022/08/09 11:51:59;;;;;;;6.82;1.80;;;;;;;28.87;26.19;100968.50;20888726;28;20135;-70
2022/08/09 12:02:20;;;;;;;7.78;1.55;;;;;;;29.18;26.36;100968.66;20890409;28;20095;-69
2022/08/09 12:12:40;;;;;;;5.38;1.38;;;;;;;29.19;25.94;100958.72;20887154;28;20479;-70
2022/08/09 12:22:41;;;;;;;4.70;1.58;;;;;;;29.50;24.44;100965.03;20886831;28;20069;-69
2022/08/09 12:32:43;;;;;;;5.60;1.50;;;;;;;29.40;25.43;100954.19;20885478;28;20049;-69
2022/08/09 12:42:44;;;;;;;4.25;1.40;;;;;;;29.54;25.34;100944.88;20886448;28;20136;-70
2022/08/09 12:52:46;;;;;;;4.93;1.52;;;;;;;29.46;26.26;100942.84;20899111;28;20049;-69
2022/08/09 13:03:07;;;;;;;5.47;1.70;;;;;;;29.29;25.33;100927.28;20901129;28;20061;-70
2022/08/09 13:13:24;;;;;;;3.53;1.50;;;;;;;29.39;26.09;100928.19;20899304;28;20452;-69
2022/08/09 13:23:39;;;;;;;5.30;1.77;;;;;;;29.77;25.47;100911.38;20897396;28;20501;-69
2022/08/09 13:34:00;;;;;;;5.63;1.70;;;;;;;29.73;25.95;100915.34;20899304;28;20075;-70
2022/08/09 13:44:02;;;;;;;3.47;1.50;;;;;;;29.69;25.79;100907.63;20896861;28;20349;-70
2022/08/09 13:54:05;;;;;;;3.45;1.85;;;;;;;29.85;25.70;100900.75;20896127;28;20504;-69
2022/08/09 14:04:13;;;;;;;3.72;1.45;;;;;;;30.06;25.70;100894.44;20893852;28;20037;-71
2022/08/09 14:14:23;;;;;;;4.78;1.45;;;;;;;29.94;25.05;100890.97;20896174;28;20041;-69
2022/08/09 14:24:27;;;;;;;4.78;1.55;;;;;;;30.10;24.85;100882.34;20895491;28;20045;-69
2022/08/09 14:34:33;;;;;;;2.63;1.50;;;;;;;30.14;24.40;100867.63;20894536;28;20382;-69
2022/08/09 14:44:40;;;;;;;6.35;1.58;;;;;;;30.15;23.56;100866.63;20892423;28;20056;-68
2022/08/09 14:54:59;;;;;;;5.20;1.23;;;;;;;30.19;22.71;100870.75;20892854;28;20041;-68
2022/08/09 15:05:00;;;;;;;3.03;1.25;;;;;;;30.29;22.21;100865.38;20891602;28;20501;-68
2022/08/09 15:15:02;;;;;;;4.43;1.17;;;;;;;30.30;21.55;100851.72;20889369;28;20052;-68
2022/08/09 15:25:08;;;;;;;5.38;1.50;;;;;;;30.27;21.86;100843.03;20889390;28;20040;-68
2022/08/09 15:35:14;;;;;;;3.42;1.35;;;;;;;30.34;22.30;100846.88;20889100;28;20053;-69
2022/08/09 15:45:35;;;;;;;6.68;1.80;;;;;;;30.38;21.35;100846.47;20888524;28;20209;-69
2022/08/09 15:55:57;;;;;;;2.90;1.10;;;;;;;30.38;21.79;100835.66;20886945;28;20110;-68
2022/08/09 16:06:18;;;;;;;3.85;1.27;;;;;;;30.43;21.98;100828.97;20882835;28;20571;-68
2022/08/09 16:16:36;;;;;;;2.35;1.20;;;;;;;30.47;21.80;100835.78;20884857;28;20048;-68
2022/08/09 16:26:39;;;;;;;3.90;1.60;;;;;;;30.47;21.73;100835.78;20894815;28;20076;-68
2022/08/09 16:36:41;;;;;;;5.77;1.40;;;;;;;30.65;21.67;100820.56;20898012;28;20052;-68
2022/08/09 16:46:42;;;;;;;6.22;2.30;;;;;;;30.55;21.89;100817.88;20897957;28;20052;-67
2022/08/09 16:57:02;;;;;;;6.00;1.67;;;;;;;30.50;21.12;100824.69;20901014;28;20049;-68
2022/08/09 17:07:03;;;;;;;6.05;1.55;;;;;;;30.30;21.47;100824.69;20891061;28;20445;-68
2022/08/09 17:17:24;;;;;;;5.40;1.48;;;;;;;30.22;21.92;100829.94;20895717;28;20041;-68
2022/08/09 17:27:27;;;;;;;2.38;1.23;;;;;;;29.91;22.25;100821.06;20895997;28;20053;-68
2022/08/09 17:37:29;;;;;;;2.38;1.25;;;;;;;29.86;22.84;100832.28;20893592;28;20044;-68
2022/08/09 17:47:50;;;;;;;3.10;1.45;;;;;;;29.48;24.46;100837.50;20893650;28;20083;-68
2022/08/09 17:57:56;;;;;;;5.68;1.10;;;;;;;29.24;23.50;100846.75;20892624;28;20129;-69
2022/08/09 18:08:04;;;;;;;4.90;1.48;;;;;;;28.92;24.60;100851.34;20892258;28;20048;-69
2022/08/09 18:18:11;;;;;;;4.38;1.40;;;;;;;28.58;24.78;100854.22;20891612;28;20052;-70
2022/08/09 18:28:26;;;;;;;8.68;1.30;;;;;;;28.06;25.38;100859.34;20886585;28;20053;-70
2022/08/09 18:38:47;;;;;;;5.13;1.35;;;;;;;27.56;26.73;100861.59;20887380;28;20053;-71
2022/08/09 18:48:49;;;;;;;3.25;1.52;;;;;;;27.18;27.67;100877.19;20887801;28;20048;-69
2022/08/09 18:58:50;;;;;;;7.22;1.73;;;;;;;26.81;28.31;100888.91;20880718;28;20053;-69
2022/08/09 19:08:55;;;;;;;5.50;1.70;;;;;;;26.50;29.35;100897.56;20885643;28;20410;-70
2022/08/09 19:19:03;;;;;;;4.15;1.70;;;;;;;26.24;29.96;100900.31;20888854;28;20081;-70
2022/08/09 19:29:24;;;;;;;4.35;1.70;;;;;;;25.97;30.64;100902.34;20888211;28;20041;-70
2022/08/09 19:39:26;;;;;;;6.47;1.83;;;;;;;25.74;31.20;100915.53;21036505;22;20078;-70
2022/08/09 19:49:43;;;;;;;5.57;1.75;;;;;;;25.58;31.59;100914.88;20962826;28;20063;-69
2022/08/09 20:00:05;;;;;;;6.25;1.65;;;;;;;25.29;32.47;100928.50;20970978;28;20101;-69
2022/08/09 20:10:10;;;;;;;5.72;2.00;;;;;;;25.16;32.90;100922.28;20967510;28;20049;-70
2022/08/09 20:20:22;;;;;;;6.85;1.77;;;;;;;24.96;33.24;100925.41;20980645;28;20055;-70
2022/08/09 20:30:27;;;;;;;3.50;1.70;;;;;;;24.70;33.66;100928.00;20979409;28;20051;-70
2022/08/09 20:40:28;;;;;;;5.53;1.80;;;;;;;24.49;34.54;100932.97;20978381;28;20044;-70
2022/08/09 20:50:30;;;;;;;3.85;2.05;;;;;;;24.26;34.44;100929.06;20982201;28;20040;-71
2022/08/09 21:00:49;;;;;;;5.65;2.22;;;;;;;24.14;34.83;100937.03;20916464;28;20520;-70
2022/08/09 21:11:10;;;;;;;4.57;1.83;;;;;;;23.91;35.46;100941.19;20964711;28;20052;-69
2022/08/09 21:21:32;;;;;;;7.55;2.05;;;;;;;23.76;36.26;100941.19;20976349;28;20611;-69
2022/08/09 21:31:53;;;;;;;8.77;1.90;;;;;;;23.44;37.28;100940.44;20979990;28;20075;-69
2022/08/09 21:41:54;;;;;;;4.55;1.83;;;;;;;23.21;37.90;100938.28;20978221;28;20491;-71
2022/08/09 21:52:07;;;;;;;3.75;1.90;;;;;;;22.98;39.04;100950.34;20977686;28;20060;-72
2022/08/09 22:02:17;;;;;;;5.60;2.05;;;;;;;22.71;40.06;100952.78;20928034;28;20574;-70
2022/08/09 22:12:37;;;;;;;5.55;2.08;;;;;;;22.28;41.52;100948.06;20978504;28;20109;-71
2022/08/09 22:22:39;;;;;;;7.00;1.95;;;;;;;22.20;40.68;100950.28;20976693;28;20056;-70
2022/08/09 22:32:41;;;;;;;7.38;2.20;;;;;;;22.17;40.28;100954.91;20975137;28;20050;-71
2022/08/09 22:42:42;;;;;;;5.43;2.03;;;;;;;22.04;40.17;100949.38;20975850;28;20055;-70
2022/08/09 22:52:45;;;;;;;5.40;2.55;;;;;;;21.72;42.44;100965.31;20974723;28;20059;-69
2022/08/09 23:02:54;;;;;;;6.72;2.33;;;;;;;21.16;43.38;100968.22;20973750;28;20083;-70
2022/08/09 23:12:56;;;;;;;5.60;2.10;;;;;;;21.00;43.09;100965.47;20966976;28;20539;-70
2022/08/09 23:22:57;;;;;;;6.25;2.30;;;;;;;21.14;42.09;100967.44;20972447;28;20044;-70
2022/08/09 23:32:58;;;;;;;3.60;2.15;;;;;;;21.29;40.98;100965.78;20972010;28;20048;-70
2022/08/09 23:43:00;;;;;;;5.07;2.33;;;;;;;21.37;40.90;100961.84;20972236;28;20044;-69
2022/08/09 23:53:01;;;;;;;5.80;1.90;;;;;;;21.24;41.44;100960.69;20891972;28;20048;-68
